sensor_id;sensor_type;location;lat;lon;timestamp;temperature;humidity
3690;DHT22;1861;50.240;8.596;2023-03-01T00:01:16;5.00;77.40
3690;DHT22;1861;50.240;8.596;2023-03-01T00:03:45;5.00;77.20
3690;DHT22;1861;50.240;8.596;2023-03-01T00:06:14;5.00;77.20
3690;DHT22;1861;50.240;8.596;2023-03-01T00:08:42;5.00;77.10
3690;DHT22;1861;50.240;8.596;2023-03-01T00:11:13;5.00;77.30
3690;DHT22;1861;50.240;8.596;2023-03-01T00:13:42;5.00;77.30
3690;DHT22;1861;50.240;8.596;2023-03-01T00:16:12;5.00;77.40
3690;DHT22;1861;50.240;8.596;2023-03-01T00:18:42;5.00;77.40
3690;DHT22;1861;50.240;8.596;2023-03-01T00:21:10;5.00;77.60
3690;DHT22;1861;50.240;8.596;2023-03-01T00:23:39;5.00;77.30
3690;DHT22;1861;50.240;8.596;2023-03-01T00:26:09;5.00;77.30
3690;DHT22;1861;50.240;8.596;2023-03-01T00:28:40;5.00;77.60
3690;DHT22;1861;50.240;8.596;2023-03-01T00:31:11;5.00;77.70
3690;DHT22;1861;50.240;8.596;2023-03-01T00:33:41;5.00;77.60
3690;DHT22;1861;50.240;8.596;2023-03-01T00:36:11;5.00;77.50
3690;DHT22;1861;50.240;8.596;2023-03-01T00:38:42;5.00;77.20
3690;DHT22;1861;50.240;8.596;2023-03-01T00:41:12;5.10;77.30
3690;DHT22;1861;50.240;8.596;2023-03-01T00:43:41;5.10;77.50
3690;DHT22;1861;50.240;8.596;2023-03-01T00:46:11;5.00;77.30
3690;DHT22;1861;50.240;8.596;2023-03-01T00:48:42;5.10;77.60
3690;DHT22;1861;50.240;8.596;2023-03-01T00:51:12;5.10;77.60
3690;DHT22;1861;50.240;8.596;2023-03-01T00:53:41;5.10;77.30
3690;DHT22;1861;50.240;8.596;2023-03-01T00:56:11;5.00;77.50
3690;DHT22;1861;50.240;8.596;2023-03-01T00:58:40;5.10;77.50
3690;DHT22;1861;50.240;8.596;2023-03-01T01:01:09;5.20;77.20
3690;DHT22;1861;50.240;8.596;2023-03-01T01:03:47;5.20;77.10
3690;DHT22;1861;50.240;8.596;2023-03-01T01:06:19;5.10;77.00
3690;DHT22;1861;50.240;8.596;2023-03-01T01:08:48;5.00;77.60
3690;DHT22;1861;50.240;8.596;2023-03-01T01:11:17;4.90;78.20
3690;DHT22;1861;50.240;8.596;2023-03-01T01:13:46;5.00;78.00
3690;DHT22;1861;50.240;8.596;2023-03-01T01:16:16;5.00;78.40
3690;DHT22;1861;50.240;8.596;2023-03-01T01:18:46;5.00;78.00
3690;DHT22;1861;50.240;8.596;2023-03-01T01:21:16;4.90;77.90
3690;DHT22;1861;50.240;8.596;2023-03-01T01:23:45;4.90;78.10
3690;DHT22;1861;50.240;8.596;2023-03-01T01:26:14;5.00;78.40
3690;DHT22;1861;50.240;8.596;2023-03-01T01:28:43;5.00;78.10
3690;DHT22;1861;50.240;8.596;2023-03-01T01:31:11;5.00;78.30
3690;DHT22;1861;50.240;8.596;2023-03-01T01:33:39;5.00;78.10
3690;DHT22;1861;50.240;8.596;2023-03-01T01:36:09;5.10;78.00
3690;DHT22;1861;50.240;8.596;2023-03-01T01:38:38;5.10;77.90
3690;DHT22;1861;50.240;8.596;2023-03-01T01:41:07;5.00;78.20
3690;DHT22;1861;50.240;8.596;2023-03-01T01:43:37;5.00;78.40
3690;DHT22;1861;50.240;8.596;2023-03-01T01:46:16;5.00;78.30
3690;DHT22;1861;50.240;8.596;2023-03-01T01:48:52;4.90;78.50
3690;DHT22;1861;50.240;8.596;2023-03-01T01:51:25;4.90;78.80
3690;DHT22;1861;50.240;8.596;2023-03-01T01:53:58;5.00;78.50
3690;DHT22;1861;50.240;8.596;2023-03-01T01:56:29;4.90;78.20
3690;DHT22;1861;50.240;8.596;2023-03-01T01:58:57;4.90;78.40
3690;DHT22;1861;50.240;8.596;2023-03-01T02:01:26;4.90;78.20
3690;DHT22;1861;50.240;8.596;2023-03-01T02:03:54;4.90;78.10
3690;DHT22;1861;50.240;8.596;2023-03-01T02:06:27;4.90;78.20
3690;DHT22;1861;50.240;8.596;2023-03-01T02:09:00;4.90;78.50
3690;DHT22;1861;50.240;8.596;2023-03-01T02:11:30;4.90;78.50
3690;DHT22;1861;50.240;8.596;2023-03-01T02:13:59;5.00;78.60
3690;DHT22;1861;50.240;8.596;2023-03-01T02:16:27;5.00;78.60
3690;DHT22;1861;50.240;8.596;2023-03-01T02:18:57;5.00;78.40
3690;DHT22;1861;50.240;8.596;2023-03-01T02:21:37;5.00;78.30
3690;DHT22;1861;50.240;8.596;2023-03-01T02:24:14;5.00;78.30
3690;DHT22;1861;50.240;8.596;2023-03-01T02:26:52;5.00;78.20
3690;DHT22;1861;50.240;8.596;2023-03-01T02:29:24;5.00;78.30
3690;DHT22;1861;50.240;8.596;2023-03-01T02:31:54;4.90;78.60
3690;DHT22;1861;50.240;8.596;2023-03-01T02:34:26;4.90;78.80
3690;DHT22;1861;50.240;8.596;2023-03-01T02:36:59;4.90;79.30
3690;DHT22;1861;50.240;8.596;2023-03-01T02:39:33;4.90;79.30
3690;DHT22;1861;50.240;8.596;2023-03-01T02:42:02;4.90;79.00
3690;DHT22;1861;50.240;8.596;2023-03-01T02:44:33;4.80;79.10
3690;DHT22;1861;50.240;8.596;2023-03-01T02:47:03;4.80;79.40
3690;DHT22;1861;50.240;8.596;2023-03-01T02:49:34;4.80;79.10
3690;DHT22;1861;50.240;8.596;2023-03-01T02:52:26;4.80;78.80
3690;DHT22;1861;50.240;8.596;2023-03-01T02:54:59;4.80;78.50
3690;DHT22;1861;50.240;8.596;2023-03-01T02:57:30;4.80;78.70
3690;DHT22;1861;50.240;8.596;2023-03-01T03:00:04;4.70;78.70
3690;DHT22;1861;50.240;8.596;2023-03-01T03:02:35;4.70;78.90
3690;DHT22;1861;50.240;8.596;2023-03-01T03:05:14;4.60;79.40
3690;DHT22;1861;50.240;8.596;2023-03-01T03:07:46;4.60;79.40
3690;DHT22;1861;50.240;8.596;2023-03-01T03:10:17;4.80;79.40
3690;DHT22;1861;50.240;8.596;2023-03-01T03:12:49;4.80;78.90
3690;DHT22;1861;50.240;8.596;2023-03-01T03:15:21;4.70;79.00
3690;DHT22;1861;50.240;8.596;2023-03-01T03:17:50;4.60;79.10
3690;DHT22;1861;50.240;8.596;2023-03-01T03:20:20;4.60;79.10
3690;DHT22;1861;50.240;8.596;2023-03-01T03:22:51;4.50;79.30
3690;DHT22;1861;50.240;8.596;2023-03-01T03:25:21;4.50;79.40
3690;DHT22;1861;50.240;8.596;2023-03-01T03:27:51;4.50;79.80
3690;DHT22;1861;50.240;8.596;2023-03-01T03:30:26;4.60;79.40
3690;DHT22;1861;50.240;8.596;2023-03-01T03:32:55;4.60;79.60
3690;DHT22;1861;50.240;8.596;2023-03-01T03:35:25;4.70;79.30
3690;DHT22;1861;50.240;8.596;2023-03-01T03:37:58;4.60;79.10
3690;DHT22;1861;50.240;8.596;2023-03-01T03:40:31;4.60;79.20
3690;DHT22;1861;50.240;8.596;2023-03-01T03:43:00;4.60;79.50
3690;DHT22;1861;50.240;8.596;2023-03-01T03:45:29;4.40;79.40
3690;DHT22;1861;50.240;8.596;2023-03-01T03:48:01;4.40;79.70
3690;DHT22;1861;50.240;8.596;2023-03-01T03:50:29;4.40;80.40
3690;DHT22;1861;50.240;8.596;2023-03-01T03:52:57;4.40;80.10
3690;DHT22;1861;50.240;8.596;2023-03-01T03:55:25;4.50;80.20
3690;DHT22;1861;50.240;8.596;2023-03-01T03:57:58;4.40;80.30
3690;DHT22;1861;50.240;8.596;2023-03-01T04:00:30;4.40;80.40
3690;DHT22;1861;50.240;8.596;2023-03-01T04:02:58;4.40;80.40
3690;DHT22;1861;50.240;8.596;2023-03-01T04:05:27;4.40;80.20
3690;DHT22;1861;50.240;8.596;2023-03-01T04:07:56;4.50;79.90
3690;DHT22;1861;50.240;8.596;2023-03-01T04:10:35;4.50;79.80
3690;DHT22;1861;50.240;8.596;2023-03-01T04:13:05;4.60;79.40
3690;DHT22;1861;50.240;8.596;2023-03-01T04:15:35;4.50;79.40
3690;DHT22;1861;50.240;8.596;2023-03-01T04:18:03;4.60;79.70
3690;DHT22;1861;50.240;8.596;2023-03-01T04:20:34;4.60;79.20
3690;DHT22;1861;50.240;8.596;2023-03-01T04:23:05;4.60;79.30
3690;DHT22;1861;50.240;8.596;2023-03-01T04:25:41;4.60;79.50
3690;DHT22;1861;50.240;8.596;2023-03-01T04:28:09;4.50;79.60
3690;DHT22;1861;50.240;8.596;2023-03-01T04:30:39;4.60;79.50
3690;DHT22;1861;50.240;8.596;2023-03-01T04:33:09;4.60;79.40
3690;DHT22;1861;50.240;8.596;2023-03-01T04:35:38;4.60;79.40
3690;DHT22;1861;50.240;8.596;2023-03-01T04:38:07;4.50;79.30
3690;DHT22;1861;50.240;8.596;2023-03-01T04:40:36;4.60;79.50
3690;DHT22;1861;50.240;8.596;2023-03-01T04:43:04;4.50;79.50
3690;DHT22;1861;50.240;8.596;2023-03-01T04:45:33;4.50;79.40
3690;DHT22;1861;50.240;8.596;2023-03-01T04:48:04;4.60;79.30
3690;DHT22;1861;50.240;8.596;2023-03-01T04:50:32;4.50;79.10
3690;DHT22;1861;50.240;8.596;2023-03-01T04:53:00;4.50;79.60
3690;DHT22;1861;50.240;8.596;2023-03-01T04:55:29;4.50;79.40
3690;DHT22;1861;50.240;8.596;2023-03-01T04:57:58;4.60;79.20
3690;DHT22;1861;50.240;8.596;2023-03-01T05:00:26;4.60;79.40
3690;DHT22;1861;50.240;8.596;2023-03-01T05:02:55;4.60;79.10
3690;DHT22;1861;50.240;8.596;2023-03-01T05:05:27;4.50;79.50
3690;DHT22;1861;50.240;8.596;2023-03-01T05:07:57;4.50;79.50
3690;DHT22;1861;50.240;8.596;2023-03-01T05:10:27;4.50;79.20
3690;DHT22;1861;50.240;8.596;2023-03-01T05:12:57;4.40;79.40
3690;DHT22;1861;50.240;8.596;2023-03-01T05:15:26;4.40;79.60
3690;DHT22;1861;50.240;8.596;2023-03-01T05:17:56;4.50;79.30
3690;DHT22;1861;50.240;8.596;2023-03-01T05:20:29;4.50;79.00
3690;DHT22;1861;50.240;8.596;2023-03-01T05:22:59;4.50;79.20
3690;DHT22;1861;50.240;8.596;2023-03-01T05:25:32;4.50;79.20
3690;DHT22;1861;50.240;8.596;2023-03-01T05:28:01;4.50;79.10
3690;DHT22;1861;50.240;8.596;2023-03-01T05:30:31;4.60;79.10
3690;DHT22;1861;50.240;8.596;2023-03-01T05:33:00;4.50;78.90
3690;DHT22;1861;50.240;8.596;2023-03-01T05:35:29;4.50;79.20
3690;DHT22;1861;50.240;8.596;2023-03-01T05:38:00;4.50;79.10
3690;DHT22;1861;50.240;8.596;2023-03-01T05:40:28;4.60;79.30
3690;DHT22;1861;50.240;8.596;2023-03-01T05:42:56;4.60;79.30
3690;DHT22;1861;50.240;8.596;2023-03-01T05:45:26;4.50;79.20
3690;DHT22;1861;50.240;8.596;2023-03-01T05:47:54;4.50;79.30
3690;DHT22;1861;50.240;8.596;2023-03-01T05:50:24;4.60;79.30
3690;DHT22;1861;50.240;8.596;2023-03-01T05:52:58;4.60;79.10
3690;DHT22;1861;50.240;8.596;2023-03-01T05:55:27;4.60;79.50
3690;DHT22;1861;50.240;8.596;2023-03-01T05:57:58;4.50;79.20
3690;DHT22;1861;50.240;8.596;2023-03-01T06:00:26;4.60;79.40
3690;DHT22;1861;50.240;8.596;2023-03-01T06:02:55;4.60;79.20
3690;DHT22;1861;50.240;8.596;2023-03-01T06:05:25;4.60;79.10
3690;DHT22;1861;50.240;8.596;2023-03-01T06:07:55;4.60;79.00
3690;DHT22;1861;50.240;8.596;2023-03-01T06:10:23;4.50;79.20
3690;DHT22;1861;50.240;8.596;2023-03-01T06:12:51;4.50;79.40
3690;DHT22;1861;50.240;8.596;2023-03-01T06:15:20;4.40;79.40
3690;DHT22;1861;50.240;8.596;2023-03-01T06:17:48;4.40;79.40
3690;DHT22;1861;50.240;8.596;2023-03-01T06:20:18;4.30;79.30
3690;DHT22;1861;50.240;8.596;2023-03-01T06:22:47;4.40;79.60
3690;DHT22;1861;50.240;8.596;2023-03-01T06:25:19;4.40;79.50
3690;DHT22;1861;50.240;8.596;2023-03-01T06:27:48;4.40;79.40
3690;DHT22;1861;50.240;8.596;2023-03-01T06:30:18;4.40;79.50
3690;DHT22;1861;50.240;8.596;2023-03-01T06:32:47;4.40;79.40
3690;DHT22;1861;50.240;8.596;2023-03-01T06:35:16;4.40;79.60
3690;DHT22;1861;50.240;8.596;2023-03-01T06:37:45;4.40;79.70
3690;DHT22;1861;50.240;8.596;2023-03-01T06:40:14;4.50;80.20
3690;DHT22;1861;50.240;8.596;2023-03-01T06:42:49;4.50;79.70
3690;DHT22;1861;50.240;8.596;2023-03-01T06:45:18;4.50;79.50
3690;DHT22;1861;50.240;8.596;2023-03-01T06:47:46;4.50;79.50
3690;DHT22;1861;50.240;8.596;2023-03-01T06:50:15;4.50;79.60
3690;DHT22;1861;50.240;8.596;2023-03-01T06:52:43;4.60;79.70
3690;DHT22;1861;50.240;8.596;2023-03-01T06:55:12;4.50;79.80
3690;DHT22;1861;50.240;8.596;2023-03-01T06:57:40;4.40;79.90
3690;DHT22;1861;50.240;8.596;2023-03-01T07:00:10;4.50;80.00
3690;DHT22;1861;50.240;8.596;2023-03-01T07:02:39;4.60;79.70
3690;DHT22;1861;50.240;8.596;2023-03-01T07:05:07;4.70;79.20
3690;DHT22;1861;50.240;8.596;2023-03-01T07:07:35;4.70;80.10
3690;DHT22;1861;50.240;8.596;2023-03-01T07:10:04;4.80;79.90
3690;DHT22;1861;50.240;8.596;2023-03-01T07:12:32;4.80;79.60
3690;DHT22;1861;50.240;8.596;2023-03-01T07:15:01;4.90;79.70
3690;DHT22;1861;50.240;8.596;2023-03-01T07:17:31;4.90;79.40
3690;DHT22;1861;50.240;8.596;2023-03-01T07:20:00;5.00;79.30
3690;DHT22;1861;50.240;8.596;2023-03-01T07:22:28;5.00;79.30
3690;DHT22;1861;50.240;8.596;2023-03-01T07:24:56;5.00;79.40
3690;DHT22;1861;50.240;8.596;2023-03-01T07:27:24;5.00;79.70
3690;DHT22;1861;50.240;8.596;2023-03-01T07:29:52;5.00;79.70
3690;DHT22;1861;50.240;8.596;2023-03-01T07:32:20;5.10;79.60
3690;DHT22;1861;50.240;8.596;2023-03-01T07:34:50;5.00;79.60
3690;DHT22;1861;50.240;8.596;2023-03-01T07:37:19;5.00;79.50
3690;DHT22;1861;50.240;8.596;2023-03-01T07:39:47;5.10;79.40
3690;DHT22;1861;50.240;8.596;2023-03-01T07:42:15;5.10;79.20
3690;DHT22;1861;50.240;8.596;2023-03-01T07:44:43;5.10;79.40
3690;DHT22;1861;50.240;8.596;2023-03-01T07:47:11;5.00;79.10
3690;DHT22;1861;50.240;8.596;2023-03-01T07:49:39;5.10;79.40
3690;DHT22;1861;50.240;8.596;2023-03-01T07:52:11;5.10;79.10
3690;DHT22;1861;50.240;8.596;2023-03-01T07:54:39;5.20;79.30
3690;DHT22;1861;50.240;8.596;2023-03-01T07:57:08;5.20;79.50
3690;DHT22;1861;50.240;8.596;2023-03-01T07:59:36;5.20;79.20
3690;DHT22;1861;50.240;8.596;2023-03-01T08:02:05;5.30;79.70
3690;DHT22;1861;50.240;8.596;2023-03-01T08:04:33;5.30;79.00
3690;DHT22;1861;50.240;8.596;2023-03-01T08:07:04;5.20;78.90
3690;DHT22;1861;50.240;8.596;2023-03-01T08:09:35;5.30;79.00
3690;DHT22;1861;50.240;8.596;2023-03-01T08:12:04;5.40;78.90
3690;DHT22;1861;50.240;8.596;2023-03-01T08:14:33;5.50;78.80
3690;DHT22;1861;50.240;8.596;2023-03-01T08:17:01;5.70;78.50
3690;DHT22;1861;50.240;8.596;2023-03-01T08:19:30;5.80;78.20
3690;DHT22;1861;50.240;8.596;2023-03-01T08:21:58;5.80;77.90
3690;DHT22;1861;50.240;8.596;2023-03-01T08:24:26;5.90;77.70
3690;DHT22;1861;50.240;8.596;2023-03-01T08:26:56;6.00;77.40
3690;DHT22;1861;50.240;8.596;2023-03-01T08:29:24;6.10;77.60
3690;DHT22;1861;50.240;8.596;2023-03-01T08:31:52;6.20;77.30
3690;DHT22;1861;50.240;8.596;2023-03-01T08:34:20;6.30;77.10
3690;DHT22;1861;50.240;8.596;2023-03-01T08:36:48;6.30;76.50
3690;DHT22;1861;50.240;8.596;2023-03-01T08:39:20;6.30;77.00
3690;DHT22;1861;50.240;8.596;2023-03-01T08:41:48;6.30;76.80
3690;DHT22;1861;50.240;8.596;2023-03-01T08:44:17;6.50;76.70
3690;DHT22;1861;50.240;8.596;2023-03-01T08:46:47;6.60;76.40
3690;DHT22;1861;50.240;8.596;2023-03-01T08:49:19;6.70;76.20
3690;DHT22;1861;50.240;8.596;2023-03-01T08:51:47;6.90;76.10
3690;DHT22;1861;50.240;8.596;2023-03-01T08:54:17;6.90;76.10
3690;DHT22;1861;50.240;8.596;2023-03-01T08:56:46;7.00;75.80
3690;DHT22;1861;50.240;8.596;2023-03-01T08:59:17;7.10;74.60
3690;DHT22;1861;50.240;8.596;2023-03-01T09:01:45;7.20;75.20
3690;DHT22;1861;50.240;8.596;2023-03-01T09:04:14;7.20;74.60
3690;DHT22;1861;50.240;8.596;2023-03-01T09:06:43;7.30;74.70
3690;DHT22;1861;50.240;8.596;2023-03-01T09:09:13;7.30;74.90
3690;DHT22;1861;50.240;8.596;2023-03-01T09:11:43;7.40;74.30
3690;DHT22;1861;50.240;8.596;2023-03-01T09:14:13;7.50;74.50
3690;DHT22;1861;50.240;8.596;2023-03-01T09:16:42;7.50;74.80
3690;DHT22;1861;50.240;8.596;2023-03-01T09:19:12;7.60;74.50
3690;DHT22;1861;50.240;8.596;2023-03-01T09:21:41;7.60;74.10
3690;DHT22;1861;50.240;8.596;2023-03-01T09:24:20;7.70;74.30
3690;DHT22;1861;50.240;8.596;2023-03-01T09:26:49;7.80;74.40
3690;DHT22;1861;50.240;8.596;2023-03-01T09:29:17;7.90;74.10
3690;DHT22;1861;50.240;8.596;2023-03-01T09:31:47;7.90;73.80
3690;DHT22;1861;50.240;8.596;2023-03-01T09:34:15;7.90;74.00
3690;DHT22;1861;50.240;8.596;2023-03-01T09:36:49;7.90;73.40
3690;DHT22;1861;50.240;8.596;2023-03-01T09:39:18;7.90;73.20
3690;DHT22;1861;50.240;8.596;2023-03-01T09:41:50;7.90;73.10
3690;DHT22;1861;50.240;8.596;2023-03-01T09:44:30;8.00;73.10
3690;DHT22;1861;50.240;8.596;2023-03-01T09:47:01;7.90;73.00
3690;DHT22;1861;50.240;8.596;2023-03-01T09:49:31;8.00;73.90
3690;DHT22;1861;50.240;8.596;2023-03-01T09:52:04;7.90;72.70
3690;DHT22;1861;50.240;8.596;2023-03-01T09:54:35;7.90;73.10
3690;DHT22;1861;50.240;8.596;2023-03-01T09:57:14;8.00;73.20
3690;DHT22;1861;50.240;8.596;2023-03-01T09:59:58;8.00;72.80
3690;DHT22;1861;50.240;8.596;2023-03-01T10:02:39;8.00;72.80
3690;DHT22;1861;50.240;8.596;2023-03-01T10:05:25;8.10;72.60
3690;DHT22;1861;50.240;8.596;2023-03-01T10:08:04;8.10;72.60
3690;DHT22;1861;50.240;8.596;2023-03-01T10:10:36;8.20;72.10
3690;DHT22;1861;50.240;8.596;2023-03-01T10:13:12;8.20;71.90
3690;DHT22;1861;50.240;8.596;2023-03-01T10:15:45;8.10;71.70
3690;DHT22;1861;50.240;8.596;2023-03-01T10:18:19;8.00;72.10
3690;DHT22;1861;50.240;8.596;2023-03-01T10:20:52;8.10;72.50
3690;DHT22;1861;50.240;8.596;2023-03-01T10:23:23;8.10;72.50
3690;DHT22;1861;50.240;8.596;2023-03-01T10:26:02;8.10;72.70
3690;DHT22;1861;50.240;8.596;2023-03-01T10:28:43;8.20;72.30
3690;DHT22;1861;50.240;8.596;2023-03-01T10:31:15;8.20;72.70
3690;DHT22;1861;50.240;8.596;2023-03-01T10:33:46;8.20;72.30
3690;DHT22;1861;50.240;8.596;2023-03-01T10:36:18;8.20;72.50
3690;DHT22;1861;50.240;8.596;2023-03-01T10:38:51;8.20;72.20
3690;DHT22;1861;50.240;8.596;2023-03-01T10:41:20;8.20;72.30
3690;DHT22;1861;50.240;8.596;2023-03-01T10:43:52;8.20;72.30
3690;DHT22;1861;50.240;8.596;2023-03-01T10:46:26;8.30;72.40
3690;DHT22;1861;50.240;8.596;2023-03-01T10:49:15;8.40;72.70
3690;DHT22;1861;50.240;8.596;2023-03-01T10:51:45;8.30;72.50
3690;DHT22;1861;50.240;8.596;2023-03-01T10:54:19;8.40;72.50
3690;DHT22;1861;50.240;8.596;2023-03-01T10:56:49;8.30;72.50
3690;DHT22;1861;50.240;8.596;2023-03-01T10:59:28;8.30;72.90
3690;DHT22;1861;50.240;8.596;2023-03-01T11:02:26;8.30;73.10
3690;DHT22;1861;50.240;8.596;2023-03-01T11:05:02;8.30;71.80
3690;DHT22;1861;50.240;8.596;2023-03-01T11:07:30;8.40;72.40
3690;DHT22;1861;50.240;8.596;2023-03-01T11:09:58;8.40;72.20
3690;DHT22;1861;50.240;8.596;2023-03-01T11:12:26;8.40;72.00
3690;DHT22;1861;50.240;8.596;2023-03-01T11:14:57;8.40;72.10
3690;DHT22;1861;50.240;8.596;2023-03-01T11:17:28;8.50;72.80
3690;DHT22;1861;50.240;8.596;2023-03-01T11:20:15;8.50;72.60
3690;DHT22;1861;50.240;8.596;2023-03-01T11:22:48;8.50;72.50
3690;DHT22;1861;50.240;8.596;2023-03-01T11:25:20;8.50;71.80
3690;DHT22;1861;50.240;8.596;2023-03-01T11:27:52;8.50;71.90
3690;DHT22;1861;50.240;8.596;2023-03-01T11:30:24;8.50;71.80
3690;DHT22;1861;50.240;8.596;2023-03-01T11:33:05;8.50;72.20
3690;DHT22;1861;50.240;8.596;2023-03-01T11:35:42;8.50;71.90
3690;DHT22;1861;50.240;8.596;2023-03-01T11:38:19;8.60;72.60
3690;DHT22;1861;50.240;8.596;2023-03-01T11:40:54;8.60;72.10
3690;DHT22;1861;50.240;8.596;2023-03-01T11:43:34;8.60;72.20
3690;DHT22;1861;50.240;8.596;2023-03-01T11:46:27;8.60;72.20
3690;DHT22;1861;50.240;8.596;2023-03-01T11:49:09;8.60;72.10
3690;DHT22;1861;50.240;8.596;2023-03-01T11:51:48;8.60;72.00
3690;DHT22;1861;50.240;8.596;2023-03-01T11:54:26;8.60;71.80
3690;DHT22;1861;50.240;8.596;2023-03-01T11:57:01;8.60;72.10
3690;DHT22;1861;50.240;8.596;2023-03-01T11:59:48;8.70;72.30
3690;DHT22;1861;50.240;8.596;2023-03-01T12:02:34;8.60;72.20
3690;DHT22;1861;50.240;8.596;2023-03-01T12:05:28;8.70;72.20
3690;DHT22;1861;50.240;8.596;2023-03-01T12:08:11;8.70;71.80
3690;DHT22;1861;50.240;8.596;2023-03-01T12:10:47;8.70;71.90
3690;DHT22;1861;50.240;8.596;2023-03-01T12:16:38;8.70;71.80
3690;DHT22;1861;50.240;8.596;2023-03-01T12:22:09;8.70;71.50
3690;DHT22;1861;50.240;8.596;2023-03-01T12:27:57;8.70;71.90
3690;DHT22;1861;50.240;8.596;2023-03-01T12:30:39;8.80;71.60
3690;DHT22;1861;50.240;8.596;2023-03-01T12:33:19;8.80;71.80
3690;DHT22;1861;50.240;8.596;2023-03-01T12:35:59;8.80;71.60
3690;DHT22;1861;50.240;8.596;2023-03-01T12:38:39;8.70;71.30
3690;DHT22;1861;50.240;8.596;2023-03-01T12:41:29;8.80;71.50
3690;DHT22;1861;50.240;8.596;2023-03-01T12:44:09;8.80;71.50
3690;DHT22;1861;50.240;8.596;2023-03-01T12:46:49;8.80;71.50
3690;DHT22;1861;50.240;8.596;2023-03-01T12:49:24;8.80;71.20
3690;DHT22;1861;50.240;8.596;2023-03-01T12:51:58;8.80;71.40
3690;DHT22;1861;50.240;8.596;2023-03-01T12:54:29;8.80;71.50
3690;DHT22;1861;50.240;8.596;2023-03-01T12:57:03;8.90;72.00
3690;DHT22;1861;50.240;8.596;2023-03-01T12:59:38;8.90;71.50
3690;DHT22;1861;50.240;8.596;2023-03-01T13:02:15;8.80;71.00
3690;DHT22;1861;50.240;8.596;2023-03-01T13:05:02;8.80;70.70
3690;DHT22;1861;50.240;8.596;2023-03-01T13:07:37;8.80;71.10
3690;DHT22;1861;50.240;8.596;2023-03-01T13:10:16;8.80;71.20
3690;DHT22;1861;50.240;8.596;2023-03-01T13:13:12;8.80;71.30
3690;DHT22;1861;50.240;8.596;2023-03-01T13:15:40;8.90;71.40
3690;DHT22;1861;50.240;8.596;2023-03-01T13:18:32;8.90;71.20
3690;DHT22;1861;50.240;8.596;2023-03-01T13:21:03;8.80;71.30
3690;DHT22;1861;50.240;8.596;2023-03-01T13:23:35;8.80;71.20
3690;DHT22;1861;50.240;8.596;2023-03-01T13:26:14;8.80;71.40
3690;DHT22;1861;50.240;8.596;2023-03-01T13:28:50;8.80;71.40
3690;DHT22;1861;50.240;8.596;2023-03-01T13:34:45;8.90;71.60
3690;DHT22;1861;50.240;8.596;2023-03-01T13:37:22;8.90;71.70
3690;DHT22;1861;50.240;8.596;2023-03-01T13:39:52;8.90;71.40
3690;DHT22;1861;50.240;8.596;2023-03-01T13:42:39;8.90;71.50
3690;DHT22;1861;50.240;8.596;2023-03-01T13:45:21;8.90;71.80
3690;DHT22;1861;50.240;8.596;2023-03-01T13:47:56;8.90;71.50
3690;DHT22;1861;50.240;8.596;2023-03-01T13:50:28;8.90;71.00
3690;DHT22;1861;50.240;8.596;2023-03-01T13:52:59;8.90;71.40
3690;DHT22;1861;50.240;8.596;2023-03-01T13:55:36;9.00;71.30
3690;DHT22;1861;50.240;8.596;2023-03-01T13:58:16;9.00;71.50
3690;DHT22;1861;50.240;8.596;2023-03-01T14:00:46;9.00;71.60
3690;DHT22;1861;50.240;8.596;2023-03-01T14:03:15;9.00;71.70
3690;DHT22;1861;50.240;8.596;2023-03-01T14:05:58;9.00;71.30
3690;DHT22;1861;50.240;8.596;2023-03-01T14:08:39;8.90;70.90
3690;DHT22;1861;50.240;8.596;2023-03-01T14:11:34;9.00;71.00
3690;DHT22;1861;50.240;8.596;2023-03-01T14:14:17;9.00;71.10
3690;DHT22;1861;50.240;8.596;2023-03-01T14:16:54;9.00;71.00
3690;DHT22;1861;50.240;8.596;2023-03-01T14:19:28;9.00;71.20
3690;DHT22;1861;50.240;8.596;2023-03-01T14:22:05;9.00;71.30
3690;DHT22;1861;50.240;8.596;2023-03-01T14:24:46;9.10;70.90
3690;DHT22;1861;50.240;8.596;2023-03-01T14:27:16;9.00;70.60
3690;DHT22;1861;50.240;8.596;2023-03-01T14:29:54;9.00;70.70
3690;DHT22;1861;50.240;8.596;2023-03-01T14:32:27;9.00;70.70
3690;DHT22;1861;50.240;8.596;2023-03-01T14:34:56;9.00;71.00
3690;DHT22;1861;50.240;8.596;2023-03-01T14:37:26;9.00;70.90
3690;DHT22;1861;50.240;8.596;2023-03-01T14:39:56;9.00;70.90
3690;DHT22;1861;50.240;8.596;2023-03-01T14:42:28;9.00;71.00
3690;DHT22;1861;50.240;8.596;2023-03-01T14:44:58;9.00;70.80
3690;DHT22;1861;50.240;8.596;2023-03-01T14:47:31;9.00;70.60
3690;DHT22;1861;50.240;8.596;2023-03-01T14:50:02;9.10;70.50
3690;DHT22;1861;50.240;8.596;2023-03-01T14:52:36;9.00;70.20
3690;DHT22;1861;50.240;8.596;2023-03-01T14:55:07;9.00;70.40
3690;DHT22;1861;50.240;8.596;2023-03-01T14:57:43;9.00;70.70
3690;DHT22;1861;50.240;8.596;2023-03-01T15:00:17;9.00;70.00
3690;DHT22;1861;50.240;8.596;2023-03-01T15:02:48;9.00;70.10
3690;DHT22;1861;50.240;8.596;2023-03-01T15:05:22;9.10;70.50
3690;DHT22;1861;50.240;8.596;2023-03-01T15:07:52;9.00;69.40
3690;DHT22;1861;50.240;8.596;2023-03-01T15:10:22;9.00;69.40
3690;DHT22;1861;50.240;8.596;2023-03-01T15:12:51;9.00;69.50
3690;DHT22;1861;50.240;8.596;2023-03-01T15:15:34;9.00;69.70
3690;DHT22;1861;50.240;8.596;2023-03-01T15:18:13;9.00;69.70
3690;DHT22;1861;50.240;8.596;2023-03-01T15:20:42;9.00;69.60
3690;DHT22;1861;50.240;8.596;2023-03-01T15:23:20;9.00;70.00
3690;DHT22;1861;50.240;8.596;2023-03-01T15:25:50;9.00;69.40
3690;DHT22;1861;50.240;8.596;2023-03-01T15:28:25;9.00;69.70
3690;DHT22;1861;50.240;8.596;2023-03-01T15:30:57;9.10;69.90
3690;DHT22;1861;50.240;8.596;2023-03-01T15:33:34;9.00;70.00
3690;DHT22;1861;50.240;8.596;2023-03-01T15:36:04;9.00;70.20
3690;DHT22;1861;50.240;8.596;2023-03-01T15:38:55;9.00;70.00
3690;DHT22;1861;50.240;8.596;2023-03-01T15:41:26;9.10;70.40
3690;DHT22;1861;50.240;8.596;2023-03-01T15:43:58;9.10;70.30
3690;DHT22;1861;50.240;8.596;2023-03-01T15:46:28;9.10;70.10
3690;DHT22;1861;50.240;8.596;2023-03-01T15:49:01;9.00;70.10
3690;DHT22;1861;50.240;8.596;2023-03-01T15:51:33;9.10;70.60
3690;DHT22;1861;50.240;8.596;2023-03-01T15:54:13;9.10;69.80
3690;DHT22;1861;50.240;8.596;2023-03-01T15:56:44;9.10;69.80
3690;DHT22;1861;50.240;8.596;2023-03-01T15:59:12;9.10;69.60
3690;DHT22;1861;50.240;8.596;2023-03-01T16:01:41;9.00;69.30
3690;DHT22;1861;50.240;8.596;2023-03-01T16:04:10;9.10;69.40
3690;DHT22;1861;50.240;8.596;2023-03-01T16:06:39;9.00;69.10
3690;DHT22;1861;50.240;8.596;2023-03-01T16:09:08;9.00;69.00
3690;DHT22;1861;50.240;8.596;2023-03-01T16:11:39;8.90;68.70
3690;DHT22;1861;50.240;8.596;2023-03-01T16:14:09;8.90;68.60
3690;DHT22;1861;50.240;8.596;2023-03-01T16:16:37;8.90;69.00
3690;DHT22;1861;50.240;8.596;2023-03-01T16:19:06;8.80;69.10
3690;DHT22;1861;50.240;8.596;2023-03-01T16:21:34;8.70;68.20
3690;DHT22;1861;50.240;8.596;2023-03-01T16:24:02;8.60;68.00
3690;DHT22;1861;50.240;8.596;2023-03-01T16:26:32;8.60;68.50
3690;DHT22;1861;50.240;8.596;2023-03-01T16:29:00;8.60;68.10
3690;DHT22;1861;50.240;8.596;2023-03-01T16:31:28;8.50;68.40
3690;DHT22;1861;50.240;8.596;2023-03-01T16:33:59;8.50;67.60
3690;DHT22;1861;50.240;8.596;2023-03-01T16:36:27;8.50;66.70
3690;DHT22;1861;50.240;8.596;2023-03-01T16:38:58;8.40;66.40
3690;DHT22;1861;50.240;8.596;2023-03-01T16:41:28;8.50;67.20
3690;DHT22;1861;50.240;8.596;2023-03-01T16:43:58;8.40;66.30
3690;DHT22;1861;50.240;8.596;2023-03-01T16:46:27;8.30;66.50
3690;DHT22;1861;50.240;8.596;2023-03-01T16:48:56;8.30;66.90
3690;DHT22;1861;50.240;8.596;2023-03-01T16:51:24;8.30;67.30
3690;DHT22;1861;50.240;8.596;2023-03-01T16:53:52;8.30;66.80
3690;DHT22;1861;50.240;8.596;2023-03-01T16:56:20;8.20;66.90
3690;DHT22;1861;50.240;8.596;2023-03-01T16:58:48;8.20;66.20
3690;DHT22;1861;50.240;8.596;2023-03-01T17:01:19;8.10;65.90